Sveva — IBEU — position and weather

sailwx.info

Track history (hours):
 
Tides and Currents Weather Stations Pressure Air Temp Water Temp Dewpoint Dewpoint Depression Visibility Wind Speed Wind Dir Waves Ship Positions

Sveva

Last reported at 2016-Jul-16 21:11 UTC. Time now 2016-Jul-26 12:12 UTC.
Position N 11°02' W 061°24'.
Warning: this ship's position is 9 days out of date.

Length 136 m; draft 7.8 m.

Type: Ship (hazmat cat B). MMSI: 247359000.

Date/timePositionNaut miles runAvg speedWind from/ knotsBaromVisibWave heightAir tempDewpointWater temp
2016-Jul-16 21:11N 11°02' W 061°24'0 0.6
2016-Jul-16 20:32N 11°02' W 061°24'3 2.8
2016-Jul-16 19:33N 11°01' W 061°27'2 0.6
2016-Jul-16 16:23N 11°03' W 061°28'7 3.7
2016-Jul-16 14:30N 11°03' W 061°35'  
2016-Jul-07 19:33N 29°21' W 094°47'1211.6
2016-Jul-07 18:33N 29°31' W 094°53'1111.3
2016-Jul-07 17:33N 29°41' W 094°59'7 7.3
2016-Jul-07 16:33N 29°45' W 095°06'6 6.0
2016-Jul-07 15:33N 29°43' W 095°13'  
Track history (hours):
 
Tides and Currents Weather Stations Pressure Air Temp Water Temp Dewpoint Dewpoint Depression Visibility Wind Speed Wind Dir Waves Ship Positions

Sveva

Last reported at 2016-Jul-16 21:11 UTC. Time now 2016-Jul-26 12:12 UTC.
Position N 11°02' W 061°24'.
Warning: this ship's position is 9 days out of date.

Length 136 m; draft 7.8 m.

Type: Ship (hazmat cat B). MMSI: 247359000.

Date/timePositionNaut miles runAvg speedWind from/ knotsBaromVisibWave heightAir tempDewpointWater temp
2016-Jul-16 21:11N 11°02' W 061°24'0 0.6
2016-Jul-16 20:32N 11°02' W 061°24'3 2.8
2016-Jul-16 19:33N 11°01' W 061°27'2 0.6
2016-Jul-16 16:23N 11°03' W 061°28'7 3.7
2016-Jul-16 14:30N 11°03' W 061°35'  
2016-Jul-07 19:33N 29°21' W 094°47'1211.6
2016-Jul-07 18:33N 29°31' W 094°53'1111.3
2016-Jul-07 17:33N 29°41' W 094°59'7 7.3
2016-Jul-07 16:33N 29°45' W 095°06'6 6.0
2016-Jul-07 15:33N 29°43' W 095°13'  

Dump ship's entire track history